Terminal Aerodrome Forecast
Issued by NWS El Paso, TX

Home | Current Version | Previous Version | Text Only | Print | Product List | Glossary On
Versions: 1 2 3 4 5 6 7 8 9 10 11 12
729
FTUS44 KEPZ 242320
TAFELP
TAF
KELP 242320Z 2500/2524 26006KT P6SM FEW250
     FM250700 35008KT P6SM FEW250
     FM252100 08004KT P6SM FEW250=

USA.gov is the U.S. government's official web portal to all federal, state and local government web resources and services.